sensor_id;sensor_type;location;lat;lon;timestamp;temperature;humidity
24250;DHT22;12379;49.820;8.648;2022-07-03T00:00:23;19.20;95.60
24250;DHT22;12379;49.820;8.648;2022-07-03T00:02:57;19.20;95.60
24250;DHT22;12379;49.820;8.648;2022-07-03T00:05:27;19.20;95.80
24250;DHT22;12379;49.820;8.648;2022-07-03T00:07:52;19.20;96.00
24250;DHT22;12379;49.820;8.648;2022-07-03T00:10:18;19.20;96.20
24250;DHT22;12379;49.820;8.648;2022-07-03T00:12:49;19.20;96.40
24250;DHT22;12379;49.820;8.648;2022-07-03T00:15:18;19.10;96.50
24250;DHT22;12379;49.820;8.648;2022-07-03T00:17:46;19.10;96.80
24250;DHT22;12379;49.820;8.648;2022-07-03T00:20:22;19.10;97.00
24250;DHT22;12379;49.820;8.648;2022-07-03T00:22:56;19.00;97.40
24250;DHT22;12379;49.820;8.648;2022-07-03T00:25:26;18.90;97.70
24250;DHT22;12379;49.820;8.648;2022-07-03T00:27:57;18.90;98.00
24250;DHT22;12379;49.820;8.648;2022-07-03T00:30:33;18.90;98.20
24250;DHT22;12379;49.820;8.648;2022-07-03T00:33:08;18.90;98.40
24250;DHT22;12379;49.820;8.648;2022-07-03T00:35:55;18.80;98.50
24250;DHT22;12379;49.820;8.648;2022-07-03T00:38:41;18.70;98.70
24250;DHT22;12379;49.820;8.648;2022-07-03T00:41:07;18.70;99.10
24250;DHT22;12379;49.820;8.648;2022-07-03T00:43:44;18.70;99.40
24250;DHT22;12379;49.820;8.648;2022-07-03T00:46:13;18.70;99.60
24250;DHT22;12379;49.820;8.648;2022-07-03T00:48:45;18.70;99.60
24250;DHT22;12379;49.820;8.648;2022-07-03T00:51:21;18.70;99.70
24250;DHT22;12379;49.820;8.648;2022-07-03T00:53:57;18.70;99.80
24250;DHT22;12379;49.820;8.648;2022-07-03T00:56:37;18.70;99.90
24250;DHT22;12379;49.820;8.648;2022-07-03T00:59:14;18.60;99.90
24250;DHT22;12379;49.820;8.648;2022-07-03T01:01:52;18.60;99.90
24250;DHT22;12379;49.820;8.648;2022-07-03T01:07:12;18.40;99.90
24250;DHT22;12379;49.820;8.648;2022-07-03T01:10:07;18.40;99.90
24250;DHT22;12379;49.820;8.648;2022-07-03T01:16:20;18.30;99.90
24250;DHT22;12379;49.820;8.648;2022-07-03T01:18:44;18.10;99.90
24250;DHT22;12379;49.820;8.648;2022-07-03T01:30:29;18.10;99.90
24250;DHT22;12379;49.820;8.648;2022-07-03T01:35:45;17.90;99.90
24250;DHT22;12379;49.820;8.648;2022-07-03T01:38:16;17.80;99.90
24250;DHT22;12379;49.820;8.648;2022-07-03T01:40:42;17.80;99.90
24250;DHT22;12379;49.820;8.648;2022-07-03T01:43:12;17.80;99.90
24250;DHT22;12379;49.820;8.648;2022-07-03T01:45:47;17.80;99.90
24250;DHT22;12379;49.820;8.648;2022-07-03T01:48:14;17.80;99.90
24250;DHT22;12379;49.820;8.648;2022-07-03T01:50:41;17.70;99.90
24250;DHT22;12379;49.820;8.648;2022-07-03T01:53:09;17.70;99.90
24250;DHT22;12379;49.820;8.648;2022-07-03T01:55:39;17.70;99.90
24250;DHT22;12379;49.820;8.648;2022-07-03T01:58:07;17.70;99.90
24250;DHT22;12379;49.820;8.648;2022-07-03T02:03:27;17.60;99.90
24250;DHT22;12379;49.820;8.648;2022-07-03T02:09:03;17.50;99.90
24250;DHT22;12379;49.820;8.648;2022-07-03T02:11:37;17.40;99.90
24250;DHT22;12379;49.820;8.648;2022-07-03T02:14:18;17.40;99.90
24250;DHT22;12379;49.820;8.648;2022-07-03T02:19:26;17.30;99.90
24250;DHT22;12379;49.820;8.648;2022-07-03T02:21:56;17.30;99.90
24250;DHT22;12379;49.820;8.648;2022-07-03T02:24:23;17.30;99.90
24250;DHT22;12379;49.820;8.648;2022-07-03T02:27:04;17.30;99.90
24250;DHT22;12379;49.820;8.648;2022-07-03T02:29:38;17.30;99.90
24250;DHT22;12379;49.820;8.648;2022-07-03T02:32:15;17.30;99.90
24250;DHT22;12379;49.820;8.648;2022-07-03T02:35:02;17.30;99.90
24250;DHT22;12379;49.820;8.648;2022-07-03T02:37:33;17.30;99.90
24250;DHT22;12379;49.820;8.648;2022-07-03T02:40:06;17.40;99.90
24250;DHT22;12379;49.820;8.648;2022-07-03T02:45:11;17.30;99.90
24250;DHT22;12379;49.820;8.648;2022-07-03T02:47:51;17.30;99.90
24250;DHT22;12379;49.820;8.648;2022-07-03T02:50:25;17.20;99.90
24250;DHT22;12379;49.820;8.648;2022-07-03T02:53:21;17.20;99.90
24250;DHT22;12379;49.820;8.648;2022-07-03T02:55:50;17.10;99.90
24250;DHT22;12379;49.820;8.648;2022-07-03T02:58:41;17.10;99.90
24250;DHT22;12379;49.820;8.648;2022-07-03T03:02:02;17.10;99.90
24250;DHT22;12379;49.820;8.648;2022-07-03T03:06:36;16.90;99.90
24250;DHT22;12379;49.820;8.648;2022-07-03T03:09:13;17.00;99.90
24250;DHT22;12379;49.820;8.648;2022-07-03T03:11:42;17.00;99.90
24250;DHT22;12379;49.820;8.648;2022-07-03T03:14:12;16.90;99.90
24250;DHT22;12379;49.820;8.648;2022-07-03T03:16:51;16.90;99.90
24250;DHT22;12379;49.820;8.648;2022-07-03T03:19:21;16.90;99.90
24250;DHT22;12379;49.820;8.648;2022-07-03T03:24:33;16.80;99.90
24250;DHT22;12379;49.820;8.648;2022-07-03T03:26:59;16.80;99.90
24250;DHT22;12379;49.820;8.648;2022-07-03T03:29:28;16.70;99.90
24250;DHT22;12379;49.820;8.648;2022-07-03T03:31:54;16.70;99.90
24250;DHT22;12379;49.820;8.648;2022-07-03T03:34:20;16.80;99.90
24250;DHT22;12379;49.820;8.648;2022-07-03T03:36:47;16.70;99.90
24250;DHT22;12379;49.820;8.648;2022-07-03T03:39:16;16.80;99.90
24250;DHT22;12379;49.820;8.648;2022-07-03T03:41:42;16.80;99.90
24250;DHT22;12379;49.820;8.648;2022-07-03T03:44:08;16.80;99.90
24250;DHT22;12379;49.820;8.648;2022-07-03T03:46:34;16.70;99.90
24250;DHT22;12379;49.820;8.648;2022-07-03T03:49:02;16.80;99.90
24250;DHT22;12379;49.820;8.648;2022-07-03T03:51:28;16.70;99.90
24250;DHT22;12379;49.820;8.648;2022-07-03T03:53:57;16.60;99.90
24250;DHT22;12379;49.820;8.648;2022-07-03T03:56:25;16.60;99.90
24250;DHT22;12379;49.820;8.648;2022-07-03T03:58:51;16.60;99.90
24250;DHT22;12379;49.820;8.648;2022-07-03T04:01:17;16.70;99.90
24250;DHT22;12379;49.820;8.648;2022-07-03T04:03:43;16.60;99.90
24250;DHT22;12379;49.820;8.648;2022-07-03T04:06:08;16.60;99.90
24250;DHT22;12379;49.820;8.648;2022-07-03T04:08:34;16.50;99.90
24250;DHT22;12379;49.820;8.648;2022-07-03T04:11:00;16.50;99.90
24250;DHT22;12379;49.820;8.648;2022-07-03T04:13:26;16.40;99.90
24250;DHT22;12379;49.820;8.648;2022-07-03T04:15:53;16.50;99.90
24250;DHT22;12379;49.820;8.648;2022-07-03T04:18:19;16.50;99.90
24250;DHT22;12379;49.820;8.648;2022-07-03T04:20:45;16.50;99.90
24250;DHT22;12379;49.820;8.648;2022-07-03T04:23:10;16.60;99.90
24250;DHT22;12379;49.820;8.648;2022-07-03T04:25:36;16.70;99.90
24250;DHT22;12379;49.820;8.648;2022-07-03T04:28:02;16.70;99.90
24250;DHT22;12379;49.820;8.648;2022-07-03T04:30:27;16.80;99.90
24250;DHT22;12379;49.820;8.648;2022-07-03T04:32:53;16.80;99.90
24250;DHT22;12379;49.820;8.648;2022-07-03T04:35:19;16.90;99.90
24250;DHT22;12379;49.820;8.648;2022-07-03T04:37:44;16.90;99.90
24250;DHT22;12379;49.820;8.648;2022-07-03T04:40:11;16.90;99.90
24250;DHT22;12379;49.820;8.648;2022-07-03T04:42:36;16.90;99.90
24250;DHT22;12379;49.820;8.648;2022-07-03T04:45:03;17.00;99.90
24250;DHT22;12379;49.820;8.648;2022-07-03T04:47:29;17.00;99.90
24250;DHT22;12379;49.820;8.648;2022-07-03T04:49:54;17.10;99.90
24250;DHT22;12379;49.820;8.648;2022-07-03T04:52:20;17.30;99.90
24250;DHT22;12379;49.820;8.648;2022-07-03T04:54:46;17.40;99.90
24250;DHT22;12379;49.820;8.648;2022-07-03T04:57:11;17.40;99.90
24250;DHT22;12379;49.820;8.648;2022-07-03T04:59:37;17.50;99.90
24250;DHT22;12379;49.820;8.648;2022-07-03T05:02:03;17.60;99.90
24250;DHT22;12379;49.820;8.648;2022-07-03T05:04:29;17.70;99.90
24250;DHT22;12379;49.820;8.648;2022-07-03T05:06:54;17.80;99.90
24250;DHT22;12379;49.820;8.648;2022-07-03T05:09:20;17.90;99.90
24250;DHT22;12379;49.820;8.648;2022-07-03T05:11:46;17.90;99.90
24250;DHT22;12379;49.820;8.648;2022-07-03T05:14:11;18.00;99.90
24250;DHT22;12379;49.820;8.648;2022-07-03T05:16:37;18.10;99.90
24250;DHT22;12379;49.820;8.648;2022-07-03T05:19:03;18.20;99.90
24250;DHT22;12379;49.820;8.648;2022-07-03T05:21:29;18.30;99.90
24250;DHT22;12379;49.820;8.648;2022-07-03T05:23:54;18.30;99.90
24250;DHT22;12379;49.820;8.648;2022-07-03T05:26:20;18.30;99.90
24250;DHT22;12379;49.820;8.648;2022-07-03T05:28:46;18.40;99.90
24250;DHT22;12379;49.820;8.648;2022-07-03T05:31:11;18.50;99.90
24250;DHT22;12379;49.820;8.648;2022-07-03T05:33:37;18.60;99.90
24250;DHT22;12379;49.820;8.648;2022-07-03T05:36:03;18.70;99.90
24250;DHT22;12379;49.820;8.648;2022-07-03T05:38:30;18.70;99.90
24250;DHT22;12379;49.820;8.648;2022-07-03T05:41:15;18.80;99.90
24250;DHT22;12379;49.820;8.648;2022-07-03T05:43:41;18.90;99.90
24250;DHT22;12379;49.820;8.648;2022-07-03T05:46:06;19.00;99.90
24250;DHT22;12379;49.820;8.648;2022-07-03T05:48:32;19.30;99.90
24250;DHT22;12379;49.820;8.648;2022-07-03T05:50:58;19.80;99.90
24250;DHT22;12379;49.820;8.648;2022-07-03T05:53:23;20.40;99.90
24250;DHT22;12379;49.820;8.648;2022-07-03T05:55:49;21.40;99.90
24250;DHT22;12379;49.820;8.648;2022-07-03T05:58:15;22.20;99.90
24250;DHT22;12379;49.820;8.648;2022-07-03T06:00:41;23.30;99.90
24250;DHT22;12379;49.820;8.648;2022-07-03T06:03:07;23.90;98.90
24250;DHT22;12379;49.820;8.648;2022-07-03T06:05:33;24.70;98.10
24250;DHT22;12379;49.820;8.648;2022-07-03T06:07:59;25.60;95.60
24250;DHT22;12379;49.820;8.648;2022-07-03T06:10:26;26.20;93.50
24250;DHT22;12379;49.820;8.648;2022-07-03T06:12:51;26.20;93.00
24250;DHT22;12379;49.820;8.648;2022-07-03T06:15:17;26.70;92.50
24250;DHT22;12379;49.820;8.648;2022-07-03T06:17:43;27.20;91.40
24250;DHT22;12379;49.820;8.648;2022-07-03T06:20:10;27.30;90.80
24250;DHT22;12379;49.820;8.648;2022-07-03T06:22:36;27.20;90.30
24250;DHT22;12379;49.820;8.648;2022-07-03T06:25:02;26.70;90.50
24250;DHT22;12379;49.820;8.648;2022-07-03T06:27:27;27.10;90.10
24250;DHT22;12379;49.820;8.648;2022-07-03T06:29:54;26.80;90.00
24250;DHT22;12379;49.820;8.648;2022-07-03T06:32:19;27.00;89.30
24250;DHT22;12379;49.820;8.648;2022-07-03T06:34:45;26.80;89.00
24250;DHT22;12379;49.820;8.648;2022-07-03T06:37:11;27.20;86.60
24250;DHT22;12379;49.820;8.648;2022-07-03T06:39:37;27.70;85.40
24250;DHT22;12379;49.820;8.648;2022-07-03T06:42:02;27.40;83.30
24250;DHT22;12379;49.820;8.648;2022-07-03T06:44:28;27.50;83.40
24250;DHT22;12379;49.820;8.648;2022-07-03T06:46:54;27.70;83.10
24250;DHT22;12379;49.820;8.648;2022-07-03T06:49:19;27.70;83.00
24250;DHT22;12379;49.820;8.648;2022-07-03T06:51:45;28.20;81.20
24250;DHT22;12379;49.820;8.648;2022-07-03T06:54:11;28.30;79.00
24250;DHT22;12379;49.820;8.648;2022-07-03T06:56:37;28.10;79.90
24250;DHT22;12379;49.820;8.648;2022-07-03T06:59:02;28.40;79.00
24250;DHT22;12379;49.820;8.648;2022-07-03T07:01:28;28.40;78.70
24250;DHT22;12379;49.820;8.648;2022-07-03T07:03:54;28.50;77.90
24250;DHT22;12379;49.820;8.648;2022-07-03T07:06:19;28.50;76.70
24250;DHT22;12379;49.820;8.648;2022-07-03T07:08:46;28.70;76.90
24250;DHT22;12379;49.820;8.648;2022-07-03T07:11:11;28.90;75.50
24250;DHT22;12379;49.820;8.648;2022-07-03T07:13:37;28.90;77.00
24250;DHT22;12379;49.820;8.648;2022-07-03T07:16:03;29.00;74.20
24250;DHT22;12379;49.820;8.648;2022-07-03T07:18:32;29.20;75.10
24250;DHT22;12379;49.820;8.648;2022-07-03T07:20:58;29.30;75.00
24250;DHT22;12379;49.820;8.648;2022-07-03T07:23:23;29.60;73.80
24250;DHT22;12379;49.820;8.648;2022-07-03T07:25:49;29.50;74.00
24250;DHT22;12379;49.820;8.648;2022-07-03T07:28:14;29.40;72.70
24250;DHT22;12379;49.820;8.648;2022-07-03T07:30:40;29.30;72.60
24250;DHT22;12379;49.820;8.648;2022-07-03T07:33:07;29.20;72.30
24250;DHT22;12379;49.820;8.648;2022-07-03T07:35:35;29.60;73.30
24250;DHT22;12379;49.820;8.648;2022-07-03T07:38:00;29.60;72.50
24250;DHT22;12379;49.820;8.648;2022-07-03T07:40:26;29.60;72.10
24250;DHT22;12379;49.820;8.648;2022-07-03T07:42:52;29.70;72.30
24250;DHT22;12379;49.820;8.648;2022-07-03T07:45:18;29.90;72.60
24250;DHT22;12379;49.820;8.648;2022-07-03T07:47:43;29.90;71.80
24250;DHT22;12379;49.820;8.648;2022-07-03T07:50:09;29.80;72.00
24250;DHT22;12379;49.820;8.648;2022-07-03T07:52:35;29.60;70.80
24250;DHT22;12379;49.820;8.648;2022-07-03T07:55:01;29.80;71.30
24250;DHT22;12379;49.820;8.648;2022-07-03T07:57:35;30.10;71.30
24250;DHT22;12379;49.820;8.648;2022-07-03T08:00:11;29.60;72.10
24250;DHT22;12379;49.820;8.648;2022-07-03T08:02:37;29.20;72.70
24250;DHT22;12379;49.820;8.648;2022-07-03T08:05:22;29.10;74.40
24250;DHT22;12379;49.820;8.648;2022-07-03T08:08:06;29.20;72.40
24250;DHT22;12379;49.820;8.648;2022-07-03T08:10:49;29.10;72.40
24250;DHT22;12379;49.820;8.648;2022-07-03T08:13:17;29.20;71.30
24250;DHT22;12379;49.820;8.648;2022-07-03T08:15:44;29.40;71.80
24250;DHT22;12379;49.820;8.648;2022-07-03T08:18:10;29.80;71.80
24250;DHT22;12379;49.820;8.648;2022-07-03T08:20:36;29.80;70.00
24250;DHT22;12379;49.820;8.648;2022-07-03T08:23:03;29.40;68.80
24250;DHT22;12379;49.820;8.648;2022-07-03T08:25:29;29.20;70.50
24250;DHT22;12379;49.820;8.648;2022-07-03T08:27:56;29.50;69.80
24250;DHT22;12379;49.820;8.648;2022-07-03T08:30:22;29.40;70.50
24250;DHT22;12379;49.820;8.648;2022-07-03T08:32:49;29.60;70.30
24250;DHT22;12379;49.820;8.648;2022-07-03T08:35:15;29.70;70.00
24250;DHT22;12379;49.820;8.648;2022-07-03T08:37:41;29.90;69.20
24250;DHT22;12379;49.820;8.648;2022-07-03T08:40:12;29.80;69.50
24250;DHT22;12379;49.820;8.648;2022-07-03T08:42:39;30.00;68.20
24250;DHT22;12379;49.820;8.648;2022-07-03T08:45:08;30.20;69.10
24250;DHT22;12379;49.820;8.648;2022-07-03T08:47:38;30.40;69.20
24250;DHT22;12379;49.820;8.648;2022-07-03T08:50:06;30.40;66.40
24250;DHT22;12379;49.820;8.648;2022-07-03T08:52:33;30.20;66.60
24250;DHT22;12379;49.820;8.648;2022-07-03T08:54:59;29.60;67.30
24250;DHT22;12379;49.820;8.648;2022-07-03T08:57:26;29.70;67.20
24250;DHT22;12379;49.820;8.648;2022-07-03T08:59:53;29.70;68.20
24250;DHT22;12379;49.820;8.648;2022-07-03T09:02:18;29.90;67.90
24250;DHT22;12379;49.820;8.648;2022-07-03T09:04:46;30.00;67.60
24250;DHT22;12379;49.820;8.648;2022-07-03T09:07:13;30.00;67.50
24250;DHT22;12379;49.820;8.648;2022-07-03T09:09:39;29.80;67.90
24250;DHT22;12379;49.820;8.648;2022-07-03T09:12:05;29.90;66.00
24250;DHT22;12379;49.820;8.648;2022-07-03T09:14:32;29.80;66.00
24250;DHT22;12379;49.820;8.648;2022-07-03T09:16:58;30.00;63.30
24250;DHT22;12379;49.820;8.648;2022-07-03T09:19:43;30.10;63.40
24250;DHT22;12379;49.820;8.648;2022-07-03T09:24:48;29.50;66.90
24250;DHT22;12379;49.820;8.648;2022-07-03T09:27:20;29.60;65.70
24250;DHT22;12379;49.820;8.648;2022-07-03T09:29:57;29.90;62.50
24250;DHT22;12379;49.820;8.648;2022-07-03T09:32:24;29.80;62.70
24250;DHT22;12379;49.820;8.648;2022-07-03T09:34:49;30.00;63.00
24250;DHT22;12379;49.820;8.648;2022-07-03T09:37:25;30.10;61.90
24250;DHT22;12379;49.820;8.648;2022-07-03T09:39:57;30.00;62.20
24250;DHT22;12379;49.820;8.648;2022-07-03T09:42:24;30.00;60.50
24250;DHT22;12379;49.820;8.648;2022-07-03T09:44:54;29.70;60.70
24250;DHT22;12379;49.820;8.648;2022-07-03T09:47:22;29.90;61.40
24250;DHT22;12379;49.820;8.648;2022-07-03T09:49:56;29.80;61.60
24250;DHT22;12379;49.820;8.648;2022-07-03T09:52:44;29.60;62.00
24250;DHT22;12379;49.820;8.648;2022-07-03T09:57:37;29.90;62.60
24250;DHT22;12379;49.820;8.648;2022-07-03T10:00:24;30.00;62.50
24250;DHT22;12379;49.820;8.648;2022-07-03T10:03:02;30.20;61.80
24250;DHT22;12379;49.820;8.648;2022-07-03T10:05:42;29.80;62.40
24250;DHT22;12379;49.820;8.648;2022-07-03T10:08:15;29.70;64.10
24250;DHT22;12379;49.820;8.648;2022-07-03T10:10:47;29.70;63.50
24250;DHT22;12379;49.820;8.648;2022-07-03T10:13:14;29.40;62.90
24250;DHT22;12379;49.820;8.648;2022-07-03T10:15:41;29.40;63.50
24250;DHT22;12379;49.820;8.648;2022-07-03T10:18:10;29.30;62.90
24250;DHT22;12379;49.820;8.648;2022-07-03T10:20:46;29.40;63.00
24250;DHT22;12379;49.820;8.648;2022-07-03T10:23:12;29.80;61.70
24250;DHT22;12379;49.820;8.648;2022-07-03T10:25:43;29.90;61.40
24250;DHT22;12379;49.820;8.648;2022-07-03T10:28:11;29.40;63.30
24250;DHT22;12379;49.820;8.648;2022-07-03T10:30:38;29.30;63.70
24250;DHT22;12379;49.820;8.648;2022-07-03T10:33:05;29.40;63.30
24250;DHT22;12379;49.820;8.648;2022-07-03T10:35:36;29.60;62.50
24250;DHT22;12379;49.820;8.648;2022-07-03T10:41:01;29.50;62.10
24250;DHT22;12379;49.820;8.648;2022-07-03T10:43:48;29.00;61.60
24250;DHT22;12379;49.820;8.648;2022-07-03T10:46:32;28.60;61.80
24250;DHT22;12379;49.820;8.648;2022-07-03T10:49:08;28.90;58.80
24250;DHT22;12379;49.820;8.648;2022-07-03T10:54:27;29.30;58.10
24250;DHT22;12379;49.820;8.648;2022-07-03T11:02:20;29.40;58.30
24250;DHT22;12379;49.820;8.648;2022-07-03T11:33:55;29.50;53.80
24250;DHT22;12379;49.820;8.648;2022-07-03T11:44:04;29.80;52.10
24250;DHT22;12379;49.820;8.648;2022-07-03T11:46:31;29.70;51.60
24250;DHT22;12379;49.820;8.648;2022-07-03T11:51:33;29.70;50.40
24250;DHT22;12379;49.820;8.648;2022-07-03T11:53:59;29.70;50.90
24250;DHT22;12379;49.820;8.648;2022-07-03T11:56:25;29.70;50.90
24250;DHT22;12379;49.820;8.648;2022-07-03T11:58:53;29.80;49.50
24250;DHT22;12379;49.820;8.648;2022-07-03T12:03:51;30.00;50.70
24250;DHT22;12379;49.820;8.648;2022-07-03T12:06:18;30.10;50.00
24250;DHT22;12379;49.820;8.648;2022-07-03T12:08:44;30.00;50.80
24250;DHT22;12379;49.820;8.648;2022-07-03T12:11:16;30.00;49.20
24250;DHT22;12379;49.820;8.648;2022-07-03T12:13:42;30.10;49.30
24250;DHT22;12379;49.820;8.648;2022-07-03T12:16:13;30.10;50.00
24250;DHT22;12379;49.820;8.648;2022-07-03T12:18:51;30.20;50.80
24250;DHT22;12379;49.820;8.648;2022-07-03T12:21:18;30.40;50.90
24250;DHT22;12379;49.820;8.648;2022-07-03T12:24:08;30.40;50.50
24250;DHT22;12379;49.820;8.648;2022-07-03T12:26:35;30.20;49.10
24250;DHT22;12379;49.820;8.648;2022-07-03T12:29:09;30.20;49.80
24250;DHT22;12379;49.820;8.648;2022-07-03T12:31:42;30.20;50.50
24250;DHT22;12379;49.820;8.648;2022-07-03T12:34:10;30.30;49.40
24250;DHT22;12379;49.820;8.648;2022-07-03T12:36:36;30.30;49.50
24250;DHT22;12379;49.820;8.648;2022-07-03T12:39:03;30.40;50.20
24250;DHT22;12379;49.820;8.648;2022-07-03T12:41:28;30.40;49.20
24250;DHT22;12379;49.820;8.648;2022-07-03T12:43:55;30.30;50.00
24250;DHT22;12379;49.820;8.648;2022-07-03T12:46:34;30.50;50.40
24250;DHT22;12379;49.820;8.648;2022-07-03T12:49:10;30.60;49.60
24250;DHT22;12379;49.820;8.648;2022-07-03T12:51:46;30.40;49.10
24250;DHT22;12379;49.820;8.648;2022-07-03T12:54:23;30.30;50.30
24250;DHT22;12379;49.820;8.648;2022-07-03T12:57:04;30.20;49.80
24250;DHT22;12379;49.820;8.648;2022-07-03T13:00:08;30.10;50.40
24250;DHT22;12379;49.820;8.648;2022-07-03T13:02:51;30.10;49.60
24250;DHT22;12379;49.820;8.648;2022-07-03T13:05:22;30.20;49.10
24250;DHT22;12379;49.820;8.648;2022-07-03T13:07:55;30.20;49.40
24250;DHT22;12379;49.820;8.648;2022-07-03T13:10:22;30.40;48.30
24250;DHT22;12379;49.820;8.648;2022-07-03T13:12:56;30.50;48.50
24250;DHT22;12379;49.820;8.648;2022-07-03T13:15:27;30.60;48.00
24250;DHT22;12379;49.820;8.648;2022-07-03T13:20:22;30.80;48.70
24250;DHT22;12379;49.820;8.648;2022-07-03T13:22:49;31.00;49.40
24250;DHT22;12379;49.820;8.648;2022-07-03T13:25:32;30.80;47.10
24250;DHT22;12379;49.820;8.648;2022-07-03T13:28:18;30.70;46.80
24250;DHT22;12379;49.820;8.648;2022-07-03T13:30:47;30.70;47.80
24250;DHT22;12379;49.820;8.648;2022-07-03T13:33:16;30.80;47.90
24250;DHT22;12379;49.820;8.648;2022-07-03T13:35:41;30.60;48.40
24250;DHT22;12379;49.820;8.648;2022-07-03T13:38:07;30.80;48.30
24250;DHT22;12379;49.820;8.648;2022-07-03T13:40:35;30.90;47.90
24250;DHT22;12379;49.820;8.648;2022-07-03T13:43:04;30.90;47.60
24250;DHT22;12379;49.820;8.648;2022-07-03T13:45:33;30.90;47.90
24250;DHT22;12379;49.820;8.648;2022-07-03T13:48:04;30.80;47.30
24250;DHT22;12379;49.820;8.648;2022-07-03T13:50:30;31.00;47.60
24250;DHT22;12379;49.820;8.648;2022-07-03T13:52:56;31.10;47.30
24250;DHT22;12379;49.820;8.648;2022-07-03T13:55:22;31.20;46.90
24250;DHT22;12379;49.820;8.648;2022-07-03T13:57:53;31.10;47.40
24250;DHT22;12379;49.820;8.648;2022-07-03T14:00:24;31.20;47.90
24250;DHT22;12379;49.820;8.648;2022-07-03T14:02:49;31.20;48.30
24250;DHT22;12379;49.820;8.648;2022-07-03T14:05:18;31.40;46.60
24250;DHT22;12379;49.820;8.648;2022-07-03T14:07:47;31.20;45.60
24250;DHT22;12379;49.820;8.648;2022-07-03T14:16:55;31.20;46.60
24250;DHT22;12379;49.820;8.648;2022-07-03T14:19:21;31.40;46.40
24250;DHT22;12379;49.820;8.648;2022-07-03T14:21:50;31.30;45.80
24250;DHT22;12379;49.820;8.648;2022-07-03T14:24:18;31.20;46.10
24250;DHT22;12379;49.820;8.648;2022-07-03T14:27:03;31.30;45.90
24250;DHT22;12379;49.820;8.648;2022-07-03T14:29:50;31.20;45.00
24250;DHT22;12379;49.820;8.648;2022-07-03T14:35:30;31.10;46.20
24250;DHT22;12379;49.820;8.648;2022-07-03T14:41:03;31.20;45.80
24250;DHT22;12379;49.820;8.648;2022-07-03T14:44:16;31.20;46.10
24250;DHT22;12379;49.820;8.648;2022-07-03T14:47:37;31.30;45.80
24250;DHT22;12379;49.820;8.648;2022-07-03T14:50:06;31.20;45.10
24250;DHT22;12379;49.820;8.648;2022-07-03T14:52:33;31.10;45.50
24250;DHT22;12379;49.820;8.648;2022-07-03T14:55:02;31.20;45.30
24250;DHT22;12379;49.820;8.648;2022-07-03T15:00:54;31.10;44.90
24250;DHT22;12379;49.820;8.648;2022-07-03T15:03:37;31.10;44.00
24250;DHT22;12379;49.820;8.648;2022-07-03T15:06:08;31.10;45.20
24250;DHT22;12379;49.820;8.648;2022-07-03T15:09:00;31.20;45.70
24250;DHT22;12379;49.820;8.648;2022-07-03T15:11:52;31.30;46.00
24250;DHT22;12379;49.820;8.648;2022-07-03T15:14:46;31.10;45.50
24250;DHT22;12379;49.820;8.648;2022-07-03T15:17:29;30.90;46.00
24250;DHT22;12379;49.820;8.648;2022-07-03T15:19:58;30.70;46.80
24250;DHT22;12379;49.820;8.648;2022-07-03T15:22:27;30.50;47.00
24250;DHT22;12379;49.820;8.648;2022-07-03T15:25:06;30.40;46.90
24250;DHT22;12379;49.820;8.648;2022-07-03T15:27:36;30.20;48.10
24250;DHT22;12379;49.820;8.648;2022-07-03T15:30:07;30.10;47.90
24250;DHT22;12379;49.820;8.648;2022-07-03T15:32:44;30.10;47.50
24250;DHT22;12379;49.820;8.648;2022-07-03T15:35:10;30.40;47.00
24250;DHT22;12379;49.820;8.648;2022-07-03T15:40:06;30.90;47.80
24250;DHT22;12379;49.820;8.648;2022-07-03T15:43:14;31.00;47.10
24250;DHT22;12379;49.820;8.648;2022-07-03T15:51:22;31.10;46.10
24250;DHT22;12379;49.820;8.648;2022-07-03T15:53:59;30.90;46.60
24250;DHT22;12379;49.820;8.648;2022-07-03T15:56:31;30.70;46.30
24250;DHT22;12379;49.820;8.648;2022-07-03T15:59:01;30.50;46.40
24250;DHT22;12379;49.820;8.648;2022-07-03T16:01:34;30.30;46.80
24250;DHT22;12379;49.820;8.648;2022-07-03T16:09:47;30.30;47.50
24250;DHT22;12379;49.820;8.648;2022-07-03T16:12:14;30.20;46.40
24250;DHT22;12379;49.820;8.648;2022-07-03T16:14:48;30.30;47.30
24250;DHT22;12379;49.820;8.648;2022-07-03T16:17:16;30.20;46.00
24250;DHT22;12379;49.820;8.648;2022-07-03T16:23:22;29.90;48.20
24250;DHT22;12379;49.820;8.648;2022-07-03T16:26:12;29.70;48.40
24250;DHT22;12379;49.820;8.648;2022-07-03T16:35:55;29.80;48.50
24250;DHT22;12379;49.820;8.648;2022-07-03T16:38:42;30.00;47.60
24250;DHT22;12379;49.820;8.648;2022-07-03T16:41:41;30.20;47.10
24250;DHT22;12379;49.820;8.648;2022-07-03T16:47:11;30.50;47.30
24250;DHT22;12379;49.820;8.648;2022-07-03T16:50:14;30.50;46.20
24250;DHT22;12379;49.820;8.648;2022-07-03T16:52:53;30.60;45.40
24250;DHT22;12379;49.820;8.648;2022-07-03T16:55:32;30.60;44.80
24250;DHT22;12379;49.820;8.648;2022-07-03T16:58:01;30.60;44.50
24250;DHT22;12379;49.820;8.648;2022-07-03T17:00:30;30.60;44.10
24250;DHT22;12379;49.820;8.648;2022-07-03T17:02:59;30.70;44.60
24250;DHT22;12379;49.820;8.648;2022-07-03T17:05:31;30.50;44.40
24250;DHT22;12379;49.820;8.648;2022-07-03T17:08:35;30.50;44.40
24250;DHT22;12379;49.820;8.648;2022-07-03T17:11:13;30.50;44.90
24250;DHT22;12379;49.820;8.648;2022-07-03T17:13:57;30.40;44.10
24250;DHT22;12379;49.820;8.648;2022-07-03T17:16:33;30.40;43.40
24250;DHT22;12379;49.820;8.648;2022-07-03T17:19:24;30.30;43.40
24250;DHT22;12379;49.820;8.648;2022-07-03T17:21:55;30.20;44.10
24250;DHT22;12379;49.820;8.648;2022-07-03T17:24:37;30.30;44.80
24250;DHT22;12379;49.820;8.648;2022-07-03T17:27:26;30.20;44.30
24250;DHT22;12379;49.820;8.648;2022-07-03T17:32:54;30.20;44.60
24250;DHT22;12379;49.820;8.648;2022-07-03T17:35:26;30.20;45.00
24250;DHT22;12379;49.820;8.648;2022-07-03T17:38:06;30.20;45.20
24250;DHT22;12379;49.820;8.648;2022-07-03T17:40:34;30.10;44.70
24250;DHT22;12379;49.820;8.648;2022-07-03T17:43:03;30.00;45.20
24250;DHT22;12379;49.820;8.648;2022-07-03T17:45:36;29.90;45.40
24250;DHT22;12379;49.820;8.648;2022-07-03T17:48:03;29.70;46.00
24250;DHT22;12379;49.820;8.648;2022-07-03T17:50:32;29.60;46.60
24250;DHT22;12379;49.820;8.648;2022-07-03T17:53:00;29.60;46.40
24250;DHT22;12379;49.820;8.648;2022-07-03T17:55:29;29.50;46.50
24250;DHT22;12379;49.820;8.648;2022-07-03T17:58:00;29.50;46.60
24250;DHT22;12379;49.820;8.648;2022-07-03T18:00:28;29.40;47.20
24250;DHT22;12379;49.820;8.648;2022-07-03T18:02:59;29.30;47.90
24250;DHT22;12379;49.820;8.648;2022-07-03T18:05:25;29.30;48.10
24250;DHT22;12379;49.820;8.648;2022-07-03T18:08:11;29.20;48.10
24250;DHT22;12379;49.820;8.648;2022-07-03T18:11:05;29.00;48.00
24250;DHT22;12379;49.820;8.648;2022-07-03T18:16:10;28.80;49.00
24250;DHT22;12379;49.820;8.648;2022-07-03T18:18:40;28.70;49.30